Time;durP1;ratioP1;P1;durP2;ratioP2;P2;SDS_P1;SDS_P2;PMS_P1;PMS_P2;Temp;Humidity;BMP_temperature;BMP_pressure;BME280_temperature;BME280_humidity;BME280_pressure;Samples;Min_cycle;Max_cycle;Signal;HPM_P1;HPM_P2
2022/05/30 00:00:14;;;;;;;;;;;;;;;7.46;100.00;-25274.38;5056288;28;19917;-76
2022/05/30 00:02:41;;;;;;;;;;;;;;;7.55;100.00;-25276.91;5056363;28;19917;-76
2022/05/30 00:05:07;;;;;;;;;;;;;;;7.54;100.00;-25276.75;5056860;28;19924;-77
2022/05/30 00:07:32;;;;;;;;;;;;;;;7.53;100.00;-25276.44;5056068;28;19920;-76
2022/05/30 00:09:57;;;;;;;;;;;;;;;7.43;100.00;-25273.50;5056539;28;19920;-77
2022/05/30 00:12:22;;;;;;;;;;;;;;;7.41;100.00;-25272.91;5055692;28;20007;-77
2022/05/30 00:14:48;;;;;;;;;;;;;;;7.36;100.00;-25271.59;5054872;28;20062;-77
2022/05/30 00:17:13;;;;;;;;;;;;;;;7.33;100.00;-25270.56;5054140;28;20372;-77
2022/05/30 00:19:39;;;;;;;;;;;;;;;7.30;100.00;-25269.81;5054774;28;20284;-76
2022/05/30 00:22:05;;;;;;;;;;;;;;;7.26;100.00;-25268.50;5073630;28;19923;-77
2022/05/30 00:24:38;;;;;;;;;;;;;;;7.17;100.00;-25266.13;5054630;28;20002;-76
2022/05/30 00:27:04;;;;;;;;;;;;;;;7.10;100.00;-25264.06;5056280;28;19923;-77
2022/05/30 00:29:29;;;;;;;;;;;;;;;7.08;100.00;-25263.47;5039844;28;19920;-76
2022/05/30 00:31:55;;;;;;;;;;;;;;;7.14;100.00;-25265.25;5055868;28;19921;-76
2022/05/30 00:34:23;;;;;;;;;;;;;;;7.13;100.00;-25264.81;5056480;28;19921;-76
2022/05/30 00:36:48;;;;;;;;;;;;;;;7.13;100.00;-25264.94;5056315;28;20011;-76
2022/05/30 00:39:13;;;;;;;;;;;;;;;7.13;100.00;-25264.94;5056278;28;19958;-77
2022/05/30 00:41:39;;;;;;;;;;;;;;;7.07;100.00;-25263.19;5055530;28;19940;-77
2022/05/30 00:44:12;;;;;;;;;;;;;;;7.13;100.00;-25264.94;5056167;28;19917;-77
2022/05/30 00:46:38;;;;;;;;;;;;;;;7.18;100.00;-25266.28;5054257;28;19923;-77
2022/05/30 00:49:08;;;;;;;;;;;;;;;7.22;100.00;-25267.31;5055095;28;20429;-75
2022/05/30 00:51:36;;;;;;;;;;;;;;;7.21;100.00;-25267.16;5054256;28;19916;-75
2022/05/30 00:54:02;;;;;;;;;;;;;;;7.20;100.00;-25266.88;5055189;28;20005;-75
2022/05/30 00:56:30;;;;;;;;;;;;;;;7.24;100.00;-25268.06;5055319;28;20383;-76
2022/05/30 00:58:56;;;;;;;;;;;;;;;7.24;100.00;-25267.91;5055156;28;20292;-76
2022/05/30 01:01:21;;;;;;;;;;;;;;;7.27;100.00;-25268.78;5054745;28;19920;-76
2022/05/30 01:06:35;;;;;;;;;;;;;;;7.17;100.00;-25266.13;5072255;28;19924;-76
2022/05/30 01:09:07;;;;;;;;;;;;;;;7.24;100.00;-25268.06;5054468;28;19921;-75
2022/05/30 01:11:51;;;;;;;;;;;;;;;7.13;100.00;-25264.94;5054913;28;19916;-76
2022/05/30 01:14:17;;;;;;;;;;;;;;;7.18;100.00;-25266.28;5071262;28;20353;-76
2022/05/30 01:16:42;;;;;;;;;;;;;;;7.17;100.00;-25266.13;5072109;28;19917;-75
2022/05/30 01:19:13;;;;;;;;;;;;;;;7.18;100.00;-25266.28;5054954;28;19936;-76
2022/05/30 01:21:45;;;;;;;;;;;;;;;7.17;100.00;-25266.13;5054620;28;19917;-76
2022/05/30 01:24:14;;;;;;;;;;;;;;;7.16;100.00;-25265.84;5055138;28;20347;-75
2022/05/30 01:26:46;;;;;;;;;;;;;;;7.19;100.00;-25266.72;5054834;28;20013;-76
2022/05/30 01:29:14;;;;;;;;;;;;;;;7.25;100.00;-25268.34;5053786;28;20002;-76
2022/05/30 01:31:39;;;;;;;;;;;;;;;7.27;100.00;-25268.94;5054794;28;20003;-76
2022/05/30 01:34:06;;;;;;;;;;;;;;;7.26;100.00;-25268.50;5054962;28;19989;-75
2022/05/30 01:36:32;;;;;;;;;;;;;;;7.25;100.00;-25268.19;5054175;28;19926;-75
2022/05/30 01:38:57;;;;;;;;;;;;;;;7.21;100.00;-25267.16;5054385;28;19924;-76
2022/05/30 01:41:22;;;;;;;;;;;;;;;7.18;100.00;-25266.28;5053790;28;19912;-76
2022/05/30 01:43:48;;;;;;;;;;;;;;;7.22;100.00;-25267.31;5053903;28;20356;-76
2022/05/30 01:46:15;;;;;;;;;;;;;;;7.27;100.00;-25268.78;5054959;28;19916;-74
2022/05/30 01:48:40;;;;;;;;;;;;;;;7.30;100.00;-25269.66;5053963;28;19970;-75
2022/05/30 01:51:05;;;;;;;;;;;;;;;7.37;100.00;-25271.75;5053943;28;19916;-76
2022/05/30 01:53:31;;;;;;;;;;;;;;;7.40;100.00;-25272.47;5053777;28;20003;-75
2022/05/30 01:55:56;;;;;;;;;;;;;;;7.46;100.00;-25274.38;5054233;28;20292;-75
2022/05/30 01:58:22;;;;;;;;;;;;;;;7.48;100.00;-25274.84;5054318;28;19917;-76
2022/05/30 02:00:47;;;;;;;;;;;;;;;7.45;100.00;-25273.94;5072401;28;20386;-75
2022/05/30 02:03:14;;;;;;;;;;;;;;;7.43;100.00;-25273.50;5053326;28;20014;-76
2022/05/30 02:05:40;;;;;;;;;;;;;;;7.48;100.00;-25274.84;5053590;28;19917;-76
2022/05/30 02:08:07;;;;;;;;;;;;;;;7.47;100.00;-25274.69;5055115;28;19920;-75
2022/05/30 02:10:33;;;;;;;;;;;;;;;7.53;100.00;-25276.44;5054605;28;19924;-77
2022/05/30 02:12:58;;;;;;;;;;;;;;;7.54;100.00;-25276.75;5054448;28;20357;-77
2022/05/30 02:15:24;;;;;;;;;;;;;;;7.62;100.00;-25278.81;5055322;28;20003;-77
2022/05/30 02:17:49;;;;;;;;;;;;;;;7.64;100.00;-25279.41;5054686;28;20019;-77
2022/05/30 02:20:14;;;;;;;;;;;;;;;7.67;100.00;-25280.28;5038730;28;19970;-76
2022/05/30 02:22:40;;;;;;;;;;;;;;;7.70;100.00;-25281.16;5053909;28;19917;-77
2022/05/30 02:25:06;;;;;;;;;;;;;;;7.65;100.00;-25279.69;5052845;28;20355;-77
2022/05/30 02:27:31;;;;;;;;;;;;;;;7.70;100.00;-25281.31;5053333;28;19943;-76
2022/05/30 02:29:56;;;;;;;;;;;;;;;7.77;100.00;-25283.09;5053230;28;19920;-76
2022/05/30 02:32:21;;;;;;;;;;;;;;;7.81;100.00;-25284.25;5052348;28;19946;-75
2022/05/30 02:37:34;;;;;;;;;;;;;;;7.93;100.00;-25287.66;5071208;28;19923;-76
2022/05/30 02:39:59;;;;;;;;;;;;;;;7.98;100.00;-25289.13;5055396;28;20307;-76
2022/05/30 02:42:24;;;;;;;;;;;;;;;7.99;100.00;-25289.44;5058323;28;20067;-76
2022/05/30 02:44:51;;;;;;;;;;;;;;;7.93;100.00;-25287.81;5056808;28;20015;-75
2022/05/30 02:47:19;;;;;;;;;;;;;;;7.83;100.00;-25285.00;5055815;28;19916;-75
2022/05/30 02:49:44;;;;;;;;;;;;;;;7.83;100.00;-25285.00;5075588;28;20007;-75
2022/05/30 02:52:09;;;;;;;;;;;;;;;7.84;100.00;-25285.28;5056966;28;20372;-75
2022/05/30 02:54:35;;;;;;;;;;;;;;;7.81;100.00;-25284.25;5057088;28;20308;-75
2022/05/30 02:57:00;;;;;;;;;;;;;;;7.76;100.00;-25282.78;5056783;28;19973;-74
2022/05/30 02:59:26;;;;;;;;;;;;;;;7.72;100.00;-25281.75;5074951;28;20067;-75
2022/05/30 03:01:52;;;;;;;;;;;;;;;7.68;100.00;-25280.59;5057076;28;19942;-75
2022/05/30 03:04:19;;;;;;;;;;;;;;;7.65;100.00;-25279.69;5057353;28;20015;-75
2022/05/30 03:06:45;;;;;;;;;;;;;;;7.58;100.00;-25277.78;5074287;28;20019;-75
2022/05/30 03:09:11;;;;;;;;;;;;;;;7.48;100.00;-25274.84;5056949;28;20019;-75
2022/05/30 03:11:36;;;;;;;;;;;;;;;7.44;100.00;-25273.81;5074864;28;19916;-75
2022/05/30 03:14:04;;;;;;;;;;;;;;;7.42;100.00;-25273.22;5056596;28;20410;-74
2022/05/30 03:16:29;;;;;;;;;;;;;;;7.37;100.00;-25271.75;5056891;28;19924;-74
2022/05/30 03:18:55;;;;;;;;;;;;;;;7.34;100.00;-25270.84;5057273;28;20361;-74
2022/05/30 03:21:20;;;;;;;;;;;;;;;7.28;100.00;-25269.22;5055934;28;19959;-76
2022/05/30 03:23:47;;;;;;;;;;;;;;;7.18;100.00;-25266.44;5056097;28;19989;-77
2022/05/30 03:26:12;;;;;;;;;;;;;;;7.16;100.00;-25265.84;5074946;28;19917;-75
2022/05/30 03:28:38;;;;;;;;;;;;;;;7.14;100.00;-25265.25;5057610;28;20250;-78
2022/05/30 03:31:07;;;;;;;;;;;;;;;7.16;100.00;-25265.69;5057253;28;20414;-77
2022/05/30 03:33:34;;;;;;;;;;;;;;;7.13;100.00;-25264.81;5075361;28;19920;-76
2022/05/30 03:35:59;;;;;;;;;;;;;;;7.11;100.00;-25264.34;5040796;28;19921;-77
2022/05/30 03:38:24;;;;;;;;;;;;;;;7.12;100.00;-25264.50;5057567;28;19916;-77
2022/05/30 03:40:50;;;;;;;;;;;;;;;7.15;100.00;-25265.53;5075151;28;19917;-77
2022/05/30 03:43:17;;;;;;;;;;;;;;;7.15;100.00;-25265.41;5056921;28;19960;-76
2022/05/30 03:45:44;;;;;;;;;;;;;;;7.11;100.00;-25264.34;5056821;28;19916;-77
2022/05/30 03:48:12;;;;;;;;;;;;;;;7.25;100.00;-25268.19;5056636;28;19917;-79
2022/05/30 03:50:39;;;;;;;;;;;;;;;7.30;100.00;-25269.66;5074328;28;19916;-79
2022/05/30 03:53:08;;;;;;;;;;;;;;;7.35;100.00;-25271.16;5058040;28;19923;-78
2022/05/30 03:55:36;;;;;;;;;;;;;;;7.53;100.00;-25276.44;5057539;28;20280;-79
2022/05/30 03:58:02;;;;;;;;;;;;;;;7.58;100.00;-25277.63;5074719;28;20007;-78
2022/05/30 04:00:28;;;;;;;;;;;;;;;7.66;100.00;-25280.00;5039568;28;19997;-77
2022/05/30 04:02:53;;;;;;;;;;;;;;;7.79;100.00;-25283.81;5054868;28;19971;-75
2022/05/30 04:05:20;;;;;;;;;;;;;;;8.40;100.00;-25301.22;5057066;28;19916;-76
2022/05/30 04:07:45;;;;;;;;;;;;;;;9.22;100.00;-25324.59;5058869;28;19960;-76
2022/05/30 04:10:10;;;;;;;;;;;;;;;9.97;100.00;-25346.06;5083210;28;19943;-76
2022/05/30 04:12:36;;;;;;;;;;;;;;;10.50;100.00;-25361.31;5068321;28;19966;-76
2022/05/30 04:15:02;;;;;;;;;;;;;;;10.69;100.00;-25366.75;5082052;28;19913;-76
2022/05/30 04:17:27;;;;;;;;;;;;;;;11.24;100.00;-25382.44;5064462;28;19951;-77
2022/05/30 04:19:53;;;;;;;;;;;;;;;11.88;100.00;-25400.44;5064433;28;19966;-76
2022/05/30 04:22:18;;;;;;;;;;;;;;;12.61;100.00;-25421.38;5064518;28;19916;-77
2022/05/30 04:24:45;;;;;;;;;;;;;;;12.57;100.00;-25420.34;5083688;28;19916;-76
2022/05/30 04:27:11;;;;;;;;;;;;;;;11.77;100.00;-25397.38;5077072;28;19921;-77
2022/05/30 04:29:36;;;;;;;;;;;;;;;10.85;100.00;-25369.38;5081769;28;19928;-77
2022/05/30 04:32:03;;;;;;;;;;;;;;;10.22;100.00;-22740.88;5077662;28;20280;-76
2022/05/30 04:34:28;;;;;;;;;;;;;;;10.11;100.00;-24043.34;5062092;28;19921;-76
2022/05/30 04:36:53;;;;;;;;;;;;;;;11.21;100.00;-25381.41;5061525;28;20369;-76
2022/05/30 04:39:19;;;;;;;;;;;;;;;12.71;100.00;-25424.16;5073150;28;19917;-77
2022/05/30 04:41:44;;;;;;;;;;;;;;;13.52;100.00;-22821.22;5071593;28;19917;-78
2022/05/30 04:44:23;;;;;;;;;;;;;;;14.06;100.00;-11981.50;5072952;28;19924;-77
2022/05/30 04:46:55;;;;;;;;;;;;;;;14.46;100.00;5852.66;5072936;28;20387;-77
2022/05/30 04:49:20;;;;;;;;;;;;;;;15.13;100.00;26137.03;5071141;28;19922;-75
2022/05/30 04:51:47;;;;;;;;;;;;;;;15.68;100.00;66048.94;5062267;28;19920;-75
2022/05/30 04:54:14;;;;;;;;;;;;;;;16.93;100.00;146989.38;5056878;28;20019;-75
2022/05/30 04:56:39;;;;;;;;;;;;;;;17.31;100.00;147083.97;5071490;28;19924;-72
2022/05/30 04:59:04;;;;;;;;;;;;;;;17.23;100.00;147063.53;5070912;28;19951;-74
2022/05/30 05:01:30;;;;;;;;;;;;;;;17.82;100.00;147209.25;5068326;28;19927;-74
2022/05/30 05:03:55;;;;;;;;;;;;;;;17.79;100.00;147201.59;5071546;28;19927;-75
2022/05/30 05:06:20;;;;;;;;;;;;;;;17.30;100.00;147080.13;5053154;28;19924;-73
2022/05/30 05:08:58;;;;;;;;;;;;;;;18.43;100.00;147362.81;5071410;28;19920;-74
2022/05/30 05:11:28;;;;;;;;;;;;;;;18.12;100.00;147284.78;5056977;28;19921;-73
2022/05/30 05:13:54;;;;;;;;;;;;;;;17.27;100.00;147072.47;5069634;28;19948;-75
2022/05/30 05:16:20;;;;;;;;;;;;;;;16.56;100.00;146896.06;5059451;28;20006;-76
2022/05/30 05:18:46;;;;;;;;;;;;;;;15.47;100.00;146626.53;5055016;28;19927;-74
2022/05/30 05:21:22;;;;;;;;;;;;;;;14.78;100.00;146454.28;5066166;28;19917;-76
2022/05/30 05:23:48;;;;;;;;;;;;;;;13.68;100.00;146182.53;5072148;28;20033;-76
2022/05/30 05:26:13;;;;;;;;;;;;;;;13.49;100.00;146135.38;5072154;28;19934;-77
2022/05/30 05:28:38;;;;;;;;;;;;;;;13.36;100.00;146103.53;5068485;28;19921;-77
2022/05/30 05:31:05;;;;;;;;;;;;;;;13.21;100.00;146066.50;5071159;28;19920;-76
2022/05/30 05:33:32;;;;;;;;;;;;;;;12.93;100.00;145996.41;5070871;28;20019;-76
2022/05/30 05:35:58;;;;;;;;;;;;;;;13.07;100.00;146032.09;5069456;28;20014;-77
2022/05/30 05:38:24;;;;;;;;;;;;;;;12.93;100.00;145997.69;5070073;28;19962;-75
2022/05/30 05:40:50;;;;;;;;;;;;;;;12.76;100.00;145954.38;5069644;28;20323;-75
2022/05/30 05:43:16;;;;;;;;;;;;;;;13.06;100.00;146029.53;5053045;28;19921;-74
2022/05/30 05:45:42;;;;;;;;;;;;;;;13.21;100.00;146066.50;5071477;28;19923;-76
2022/05/30 05:48:07;;;;;;;;;;;;;;;12.85;100.00;145976.00;5069944;28;19924;-76
2022/05/30 05:50:33;;;;;;;;;;;;;;;12.79;100.00;145962.00;5070032;28;19924;-74
2022/05/30 05:52:58;;;;;;;;;;;;;;;12.85;100.00;145977.31;5069552;28;19917;-74
2022/05/30 05:55:23;;;;;;;;;;;;;;;12.82;100.00;145969.66;5069361;28;19921;-73
2022/05/30 05:57:49;;;;;;;;;;;;;;;13.12;100.00;146043.56;5070027;28;20340;-74
2022/05/30 06:00:15;;;;;;;;;;;;;;;13.13;100.00;146044.81;5070338;28;20441;-74
2022/05/30 06:02:40;;;;;;;;;;;;;;;12.79;100.00;145962.00;5069295;28;19916;-75
2022/05/30 06:05:06;;;;;;;;;;;;;;;11.77;100.00;145709.78;5070242;28;19944;-74
2022/05/30 06:07:35;;;;;;;;;;;;;;;12.14;100.00;145800.25;5069651;28;20288;-74
2022/05/30 06:10:00;;;;;;;;;;;;;;;12.55;100.00;145903.44;5069525;28;19958;-75
2022/05/30 06:12:25;;;;;;;;;;;;;;;12.74;100.00;145949.28;5071255;28;19928;-74
2022/05/30 06:14:51;;;;;;;;;;;;;;;13.05;100.00;146027.00;5071646;28;19916;-74
2022/05/30 06:17:16;;;;;;;;;;;;;;;12.80;100.00;145963.28;5072799;28;20347;-74
2022/05/30 06:19:41;;;;;;;;;;;;;;;12.84;100.00;145974.75;5073464;28;19917;-74
2022/05/30 06:22:07;;;;;;;;;;;;;;;13.01;100.00;146015.53;5073756;28;19917;-74
2022/05/30 06:24:34;;;;;;;;;;;;;;;12.91;100.00;145991.28;5072613;28;20379;-75
2022/05/30 06:27:01;;;;;;;;;;;;;;;12.83;100.00;145970.91;5073487;28;19921;-75
2022/05/30 06:29:28;;;;;;;;;;;;;;;12.65;100.00;145926.38;5056826;28;20007;-75
2022/05/30 06:31:53;;;;;;;;;;;;;;;13.02;100.00;146018.06;5056450;28;20566;-74
2022/05/30 06:34:20;;;;;;;;;;;;;;;12.87;100.00;145981.13;5073308;28;19917;-74
2022/05/30 06:36:45;;;;;;;;;;;;;;;12.67;100.00;145931.44;5071108;28;20403;-74
2022/05/30 06:39:11;;;;;;;;;;;;;;;12.70;100.00;145939.09;5072812;28;19971;-74
2022/05/30 06:41:36;;;;;;;;;;;;;;;13.05;100.00;146025.69;5073067;28;20427;-75
2022/05/30 06:44:04;;;;;;;;;;;;;;;13.23;100.00;146070.31;5072616;28;19916;-75
2022/05/30 06:46:30;;;;;;;;;;;;;;;13.09;100.00;146035.91;5073623;28;20372;-76
2022/05/30 06:48:56;;;;;;;;;;;;;;;13.39;100.00;146109.88;5073049;28;19923;-76
2022/05/30 06:51:22;;;;;;;;;;;;;;;13.67;100.00;146179.97;5056549;28;19932;-75
2022/05/30 06:53:52;;;;;;;;;;;;;;;13.85;100.00;146224.59;5073039;28;19917;-75
2022/05/30 06:56:26;;;;;;;;;;;;;;;14.05;100.00;146274.34;5074921;28;19934;-76
2022/05/30 06:58:51;;;;;;;;;;;;;;;13.64;100.00;146173.63;5072823;28;19917;-75
2022/05/30 07:01:21;;;;;;;;;;;;;;;13.65;100.00;146176.16;5074600;28;20571;-76
2022/05/30 07:03:47;;;;;;;;;;;;;;;13.31;100.00;146089.44;5073100;28;20073;-75
2022/05/30 07:06:13;;;;;;;;;;;;;;;14.32;100.00;146341.91;5072758;28;20035;-75
2022/05/30 07:08:39;;;;;;;;;;;;;;;14.25;100.00;146324.09;5073979;28;19924;-76
2022/05/30 07:11:06;;;;;;;;;;;;;;;15.22;100.00;146565.25;5073092;28;19917;-77
2022/05/30 07:13:32;;;;;;;;;;;;;;;15.94;100.00;146744.06;5071317;28;19921;-76
2022/05/30 07:15:57;;;;;;;;;;;;;;;15.30;100.00;146583.13;5074145;28;19943;-76
2022/05/30 07:18:24;;;;;;;;;;;;;;;15.94;100.00;146744.06;5072717;28;19920;-76
2022/05/30 07:20:56;;;;;;;;;;;;;;;16.04;100.00;146767.06;5072671;28;20396;-75
2022/05/30 07:23:22;;;;;;;;;;;;;;;15.23;100.00;146566.56;5072930;28;20304;-75
2022/05/30 07:25:47;;;;;;;;;;;;;;;15.30;100.00;146584.41;5071577;28;19924;-75
2022/05/30 07:28:13;;;;;;;;;;;;;;;16.55;100.00;146893.53;5055589;28;19921;-77
2022/05/30 07:30:38;;;;;;;;;;;;;;;18.41;100.00;147356.38;5072631;28;19916;-76
2022/05/30 07:33:04;;;;;;;;;;;;;;;19.09;100.00;147525.34;5073957;28;19925;-74
2022/05/30 07:35:30;;;;;;;;;;;;;;;20.03;100.00;147761.00;5072828;28;19916;-74
2022/05/30 07:37:55;;;;;;;;;;;;;;;20.02;100.00;147757.16;5072654;28;19916;-75
2022/05/30 07:40:20;;;;;;;;;;;;;;;19.51;100.00;147631.63;5072246;28;20564;-75
2022/05/30 07:42:47;;;;;;;;;;;;;;;18.68;100.00;147424.22;5071947;28;20110;-74
2022/05/30 07:45:12;;;;;;;;;;;;;;;16.94;100.00;146991.94;5073245;28;19917;-75
2022/05/30 07:47:37;;;;;;;;;;;;;;;16.25;100.00;146819.41;5071566;28;19917;-75
2022/05/30 07:50:04;;;;;;;;;;;;;;;15.23;100.00;146566.56;5072631;28;20380;-75
2022/05/30 07:52:32;;;;;;;;;;;;;;;14.38;100.00;146354.69;5072593;28;20007;-75
2022/05/30 07:54:58;;;;;;;;;;;;;;;13.71;100.00;146188.91;5073339;28;19928;-74
2022/05/30 07:58:11;;;;;;;;;;;;;;;13.25;100.00;146075.41;5055766;28;20376;-74
2022/05/30 08:00:12;;;;;;;;;;;;;;;12.63;100.00;145921.22;5065554;28;19921;-74
2022/05/30 08:02:39;;;;;;;;;;;;;;;12.27;100.00;145833.34;5071517;28;20015;-77
2022/05/30 08:05:05;;;;;;;;;;;;;;;12.05;100.00;145778.59;5073434;28;19916;-75
2022/05/30 08:07:30;;;;;;;;;;;;;;;11.75;100.00;145703.47;5071996;28;19926;-75
2022/05/30 08:10:02;;;;;;;;;;;;;;;11.47;100.00;145635.97;5072794;28;19942;-75
2022/05/30 08:12:53;;;;;;;;;;;;;;;11.25;100.00;145580.00;5072647;28;19923;-75
2022/05/30 08:15:18;;;;;;;;;;;;;;;11.04;100.00;145529.06;5063005;28;19917;-75
2022/05/30 08:17:44;;;;;;;;;;;;;;;11.21;100.00;145569.81;5071111;28;19917;-76
2022/05/30 08:20:11;;;;;;;;;;;;;;;11.37;100.00;145609.25;5071965;28;19916;-77
2022/05/30 08:22:36;;;;;;;;;;;;;;;11.58;100.00;145661.44;5071295;28;19923;-74
2022/05/30 08:25:03;;;;;;;;;;;;;;;11.43;100.00;145624.53;5071518;28;19917;-75
2022/05/30 08:27:29;;;;;;;;;;;;;;;11.37;100.00;145609.25;5071614;28;19920;-75
2022/05/30 08:29:54;;;;;;;;;;;;;;;11.52;100.00;145647.44;5072282;28;19940;-74
2022/05/30 08:32:19;;;;;;;;;;;;;;;11.54;100.00;145652.50;5055020;28;20407;-75
2022/05/30 08:34:45;;;;;;;;;;;;;;;11.66;100.00;145683.06;5071467;28;20369;-75
2022/05/30 08:37:10;;;;;;;;;;;;;;;11.79;100.00;145714.91;5070531;28;20019;-77
2022/05/30 08:42:23;;;;;;;;;;;;;;;12.24;100.00;145824.44;5074195;28;19923;-77
2022/05/30 08:44:49;;;;;;;;;;;;;;;12.58;100.00;145909.75;5071546;28;19923;-77
2022/05/30 08:47:21;;;;;;;;;;;;;;;12.75;100.00;145951.81;5072447;28;19917;-76
2022/05/30 08:49:49;;;;;;;;;;;;;;;12.45;100.00;145876.69;5070703;28;19936;-74
2022/05/30 08:52:33;;;;;;;;;;;;;;;12.62;100.00;145918.72;5070872;28;19932;-76
2022/05/30 08:55:07;;;;;;;;;;;;;;;13.08;100.00;146034.66;5071845;28;20064;-77
2022/05/30 08:57:40;;;;;;;;;;;;;;;13.12;100.00;146043.56;5072992;28;20011;-77
2022/05/30 09:00:27;;;;;;;;;;;;;;;13.50;100.00;146137.94;5071785;28;20289;-76
2022/05/30 09:02:54;;;;;;;;;;;;;;;14.36;100.00;146350.88;5071510;28;20370;-76
2022/05/30 09:05:27;;;;;;;;;;;;;;;14.62;100.00;146416.00;5070997;28;19921;-77
2022/05/30 09:07:54;;;;;;;;;;;;;;;14.38;100.00;146354.69;5071363;28;19916;-77
2022/05/30 09:10:19;;;;;;;;;;;;;;;14.37;100.00;146353.41;5072909;28;19920;-77
2022/05/30 09:12:50;;;;;;;;;;;;;;;14.50;100.00;146385.31;5071921;28;19919;-77
2022/05/30 09:15:18;;;;;;;;;;;;;;;14.23;100.00;146319.00;5071801;28;20025;-77
2022/05/30 09:17:43;;;;;;;;;;;;;;;13.90;100.00;146236.09;5070986;28;19924;-77
2022/05/30 09:20:10;;;;;;;;;;;;;;;14.03;100.00;146267.94;5072346;28;19913;-77
2022/05/30 09:22:38;;;;;;;;;;;;;;;13.83;100.00;146220.78;5070829;28;20023;-77
2022/05/30 09:27:49;;;;;;;;;;;;;;;13.30;100.00;146088.19;5071826;28;20287;-77
2022/05/30 09:30:19;;;;;;;;;;;;;;;13.61;100.00;146164.66;5071529;28;19916;-75
2022/05/30 09:33:24;;;;;;;;;;;;;;;13.88;100.00;146232.25;5070081;28;19920;-76
2022/05/30 09:36:08;;;;;;;;;;;;;;;14.27;100.00;146327.91;5009687;28;19921;-75
2022/05/30 09:38:39;;;;;;;;;;;;;;;14.24;100.00;146321.53;4993511;28;19921;-74
2022/05/30 09:41:07;;;;;;;;;;;;;;;14.17;100.00;146303.69;5040526;28;20468;-77
2022/05/30 09:43:43;;;;;;;;;;;;;;;14.36;100.00;146350.88;5070446;28;20292;-76
2022/05/30 09:46:16;;;;;;;;;;;;;;;14.29;100.00;146334.31;5072324;28;19917;-77
2022/05/30 09:48:57;;;;;;;;;;;;;;;14.01;100.00;146264.13;5069818;28;19916;-77
2022/05/30 09:51:49;;;;;;;;;;;;;;;14.07;100.00;146278.19;5071180;28;20443;-77
2022/05/30 09:54:24;;;;;;;;;;;;;;;13.76;100.00;146202.91;5069233;28;19916;-77
2022/05/30 09:56:50;;;;;;;;;;;;;;;13.75;100.00;146199.09;5074084;28;20329;-75
2022/05/30 09:59:28;;;;;;;;;;;;;;;14.31;100.00;146339.41;5073215;28;19924;-74
2022/05/30 10:01:54;;;;;;;;;;;;;;;14.52;100.00;146391.66;5070317;28;20372;-75
2022/05/30 10:04:38;;;;;;;;;;;;;;;14.33;100.00;146344.47;5070671;28;19923;-76
2022/05/30 10:07:06;;;;;;;;;;;;;;;14.48;100.00;146380.19;5076304;28;19912;-76
2022/05/30 10:09:34;;;;;;;;;;;;;;;14.40;100.00;146361.06;5079138;28;19939;-75
2022/05/30 10:12:00;;;;;;;;;;;;;;;14.64;100.00;146421.06;5080869;28;19935;-75
2022/05/30 10:14:27;;;;;;;;;;;;;;;14.76;100.00;146450.44;5075330;28;19916;-76
2022/05/30 10:16:55;;;;;;;;;;;;;;;14.92;100.00;146488.72;5074971;28;19916;-76
2022/05/30 10:19:24;;;;;;;;;;;;;;;14.96;100.00;146500.22;5073444;28;19926;-77
2022/05/30 10:28:14;;;;;;;;;;;;;;;14.11;100.00;146289.66;5070991;28;19923;-75
2022/05/30 10:30:40;;;;;;;;;;;;;;;14.37;100.00;146353.41;5070237;28;19940;-74
2022/05/30 10:33:24;;;;;;;;;;;;;;;14.66;100.00;146426.16;5069107;28;20017;-76
2022/05/30 10:36:08;;;;;;;;;;;;;;;14.37;100.00;146353.41;5069336;28;19975;-73
2022/05/30 10:38:43;;;;;;;;;;;;;;;14.18;100.00;146307.53;5068978;28;19950;-76
2022/05/30 10:41:10;;;;;;;;;;;;;;;14.56;100.00;146400.63;5069836;28;19960;-74
2022/05/30 10:43:45;;;;;;;;;;;;;;;14.40;100.00;146359.78;5068630;28;20420;-75
2022/05/30 10:46:16;;;;;;;;;;;;;;;14.27;100.00;146329.19;5069684;28;19964;-74
2022/05/30 10:48:48;;;;;;;;;;;;;;;14.21;100.00;146313.88;5069454;28;19927;-74
2022/05/30 10:51:22;;;;;;;;;;;;;;;14.24;100.00;146321.53;5068897;28;19920;-74
2022/05/30 10:54:01;;;;;;;;;;;;;;;14.23;100.00;146319.00;5064565;28;20304;-74
2022/05/30 10:56:31;;;;;;;;;;;;;;;14.26;100.00;146326.66;5070829;28;19917;-75
2022/05/30 10:59:08;;;;;;;;;;;;;;;14.21;100.00;146313.88;5068837;28;19920;-74
2022/05/30 11:01:40;;;;;;;;;;;;;;;13.80;100.00;146211.88;5072000;28;19916;-73
2022/05/30 11:04:08;;;;;;;;;;;;;;;14.11;100.00;146289.66;5072923;28;19963;-75
2022/05/30 11:06:37;;;;;;;;;;;;;;;13.95;100.00;146248.81;5073635;28;19916;-74
2022/05/30 11:09:07;;;;;;;;;;;;;;;13.79;100.00;146209.31;5072621;28;20261;-75
2022/05/30 11:11:46;;;;;;;;;;;;;;;13.69;100.00;146185.09;5073111;28;20296;-74
2022/05/30 11:14:14;;;;;;;;;;;;;;;13.44;100.00;146123.91;5072697;28;19917;-73
2022/05/30 11:16:42;;;;;;;;;;;;;;;13.39;100.00;146111.19;5072938;28;19923;-73
2022/05/30 11:19:18;;;;;;;;;;;;;;;12.87;100.00;145982.38;5073562;28;20489;-73
2022/05/30 11:21:59;;;;;;;;;;;;;;;13.24;100.00;146074.16;5072479;28;20331;-74
2022/05/30 11:24:24;;;;;;;;;;;;;;;13.43;100.00;146120.09;5072769;28;20387;-74
2022/05/30 11:26:52;;;;;;;;;;;;;;;13.39;100.00;146109.88;5071800;28;20007;-73
2022/05/30 11:29:47;;;;;;;;;;;;;;;13.52;100.00;146143.03;5072367;28;19924;-73
2022/05/30 11:32:24;;;;;;;;;;;;;;;13.82;100.00;146216.97;5002346;28;19921;-73
2022/05/30 11:34:59;;;;;;;;;;;;;;;14.69;100.00;146432.56;5071884;28;20508;-74
2022/05/30 11:37:24;;;;;;;;;;;;;;;13.90;100.00;146236.09;5073806;28;20011;-74
2022/05/30 11:39:50;;;;;;;;;;;;;;;13.99;100.00;146260.31;5071221;28;20408;-74
2022/05/30 11:42:21;;;;;;;;;;;;;;;14.16;100.00;146301.13;5072387;28;19980;-76
2022/05/30 11:45:02;;;;;;;;;;;;;;;14.78;100.00;146454.28;5072117;28;19916;-78
2022/05/30 11:47:37;;;;;;;;;;;;;;;15.37;100.00;146601.03;5072287;28;19916;-77
2022/05/30 11:50:20;;;;;;;;;;;;;;;15.75;100.00;146696.78;5074522;28;19962;-79
2022/05/30 11:52:48;;;;;;;;;;;;;;;16.26;100.00;146823.22;5072532;28;19982;-77
2022/05/30 11:55:24;;;;;;;;;;;;;;;15.93;100.00;146741.50;5071656;28;19917;-75
2022/05/30 11:57:56;;;;;;;;;;;;;;;15.62;100.00;146663.56;5072101;28;19920;-74
2022/05/30 12:00:22;;;;;;;;;;;;;;;15.84;100.00;146717.25;5072000;28;19976;-72
2022/05/30 12:03:19;;;;;;;;;;;;;;;14.80;100.00;146459.34;5072111;28;19916;-74
2022/05/30 12:06:03;;;;;;;;;;;;;;;15.15;100.00;146547.41;5072904;28;20548;-74
2022/05/30 12:08:35;;;;;;;;;;;;;;;15.59;100.00;146655.91;5071124;28;19923;-73
2022/05/30 12:11:19;;;;;;;;;;;;;;;15.79;100.00;146707.03;5072095;28;19924;-74
2022/05/30 12:13:55;;;;;;;;;;;;;;;15.75;100.00;146696.78;5072368;28;19917;-75
2022/05/30 12:16:45;;;;;;;;;;;;;;;15.53;100.00;146641.84;5070933;28;19970;-76
2022/05/30 12:24:42;;;;;;;;;;;;;;;15.78;100.00;146703.19;5072639;28;19927;-74
2022/05/30 12:27:11;;;;;;;;;;;;;;;15.02;100.00;146514.22;5072797;28;19917;-73
2022/05/30 12:29:39;;;;;;;;;;;;;;;15.84;100.00;146718.50;5069809;28;19917;-75
2022/05/30 12:32:08;;;;;;;;;;;;;;;16.22;100.00;146813.03;5070980;28;19920;-74
2022/05/30 12:34:51;;;;;;;;;;;;;;;15.72;100.00;146687.81;5071780;28;19959;-73
2022/05/30 12:37:17;;;;;;;;;;;;;;;15.81;100.00;146710.84;5070185;28;19965;-74
2022/05/30 12:39:42;;;;;;;;;;;;;;;15.86;100.00;146723.59;5070318;28;19916;-74
2022/05/30 12:42:23;;;;;;;;;;;;;;;15.95;100.00;146746.59;5054318;28;20395;-74
2022/05/30 12:44:54;;;;;;;;;;;;;;;15.99;100.00;146755.56;5071417;28;19919;-74
2022/05/30 12:47:28;;;;;;;;;;;;;;;16.22;100.00;146811.72;5071358;28;19920;-74
2022/05/30 12:50:12;;;;;;;;;;;;;;;15.43;100.00;146616.34;5070519;28;20381;-75
2022/05/30 12:52:51;;;;;;;;;;;;;;;15.74;100.00;146692.97;5071357;28;19917;-75
2022/05/30 12:55:30;;;;;;;;;;;;;;;15.19;100.00;146556.34;5071264;28;19936;-76
2022/05/30 12:57:55;;;;;;;;;;;;;;;15.06;100.00;146525.69;5070651;28;19916;-74
2022/05/30 13:00:21;;;;;;;;;;;;;;;15.95;100.00;146745.34;5071479;28;19921;-74